Strona główna
METAR-TAF:

METAR-TAF

Lotnisko :

Leesburg, Wirginia, Stany Zjednoczone

Szerokość geograficzna: 39-05N, Długość geograficzna: 077-34W, wysokość: 119 m

Aktualna obserwacja pogody

Raport powstał 28 minut temu, godzina 17:55 UTC
Wiatr 5 kt od południowy zachód
Temperatura 33°C
Wilgotność 46%
Ciśnienie 1012 hPa
Widzialność: 16.1 km
Przerywane chmury na wysokości 6500 ft

METAR: KJYO 241755Z AUTO 23005KT 10SM BKN065 33/20 A2987 RMK AO2

czas: 14:23 (18:23 UTC)


TAF: brakujący

Obserwacja i prognoza pogody dla ponad 4000 lotnisk (raport METAR i TAF).

Dostępne stacje oznaczono żółtymi i czerwonymi punktami na mapie.

Najedź kursorem aby zobaczyć nazwę stacji.

Kliknij aby zobaczyć obserwacje i prognozy pogody.

Aby zmienić mapę: kliknij na zielony przycisk z czarnym krzyżykiem, aby powiększyć; na zielony przycisk z myślnikiem, aby pomniejszyć; na zielone strzałki, aby przejść do map sąsiednich.


METAR-TAF: